Terminal Aerodrome Forecast
Issued by NWS Duluth, MN

Home | Current Version | Previous Version | Text Only | Print | Product List | Glossary On
Versions: 1 2 3 4 5 6 7 8 9 10 11 12 13 14 15 16 17 18 19 20 21 22 23 24
000
FTUS43 KDLH 020500
TAFDLH
TAF
KDLH 020524Z 0206/0306 VRB04KT P6SM SKC
      TEMPO 0209/0213 3SM BR SCT005
     FM021700 22006KT P6SM SCT050
     FM022300 VRB04KT P6SM VCTS BKN050CB=

USA.gov is the U.S. government's official web portal to all federal, state and local government web resources and services.